Time;durP1;ratioP1;P1;durP2;ratioP2;P2;SDS_P1;SDS_P2;PMS_P1;PMS_P2;Temp;Humidity;BMP_temperature;BMP_pressure;BME280_temperature;BME280_humidity;BME280_pressure;Samples;Min_cycle;Max_cycle;Signal;HPM_P1;HPM_P2
2023/09/30 00:00:16;;;;;;;6.85;2.00;;;;;;;;;;5045039;28;20056;-75
2023/09/30 00:02:47;;;;;;;8.88;2.08;;;;;;;;;;5043716;28;20048;-75
2023/09/30 00:05:19;;;;;;;11.82;2.08;;;;;;;;;;5043768;28;20067;-74
2023/09/30 00:07:50;;;;;;;12.27;2.33;;;;;;;;;;5043273;28;20061;-73
2023/09/30 00:10:21;;;;;;;7.70;1.80;;;;;;;;;;5043456;28;20072;-74
2023/09/30 00:12:50;;;;;;;9.65;2.72;;;;;;;;;;5043398;28;20060;-74
2023/09/30 00:15:21;;;;;;;7.82;2.05;;;;;;;;;;5043238;28;20140;-74
2023/09/30 00:17:52;;;;;;;8.45;2.08;;;;;;;;;;5043615;28;20056;-75
2023/09/30 00:20:22;;;;;;;5.50;1.67;;;;;;;;;;5044058;28;20048;-75
2023/09/30 00:22:52;;;;;;;6.03;1.88;;;;;;;;;;5043719;28;20404;-74
2023/09/30 00:25:23;;;;;;;8.73;1.88;;;;;;;;;;5043007;28;20061;-74
2023/09/30 00:27:53;;;;;;;5.45;2.25;;;;;;;;;;5044052;28;20055;-74
2023/09/30 00:30:25;;;;;;;5.65;2.10;;;;;;;;;;5036946;28;20752;-75
2023/09/30 00:32:55;;;;;;;10.15;2.25;;;;;;;;;;5032658;28;20060;-74
2023/09/30 00:35:26;;;;;;;11.63;2.30;;;;;;;;;;5033572;28;20876;-74
2023/09/30 00:37:56;;;;;;;9.13;2.45;;;;;;;;;;5033381;28;20053;-76
2023/09/30 00:40:26;;;;;;;8.77;2.53;;;;;;;;;;5030343;28;20053;-74
2023/09/30 00:42:59;;;;;;;7.15;2.72;;;;;;;;;;5032041;28;20061;-74
2023/09/30 00:45:30;;;;;;;7.22;2.75;;;;;;;;;;5033570;28;20531;-75
2023/09/30 00:48:02;;;;;;;10.07;2.72;;;;;;;;;;5041002;28;20048;-74
2023/09/30 00:50:33;;;;;;;5.97;2.38;;;;;;;;;;5038718;28;20056;-75
2023/09/30 00:53:05;;;;;;;10.10;2.72;;;;;;;;;;5042107;28;20404;-75
2023/09/30 00:55:36;;;;;;;8.30;2.42;;;;;;;;;;5042796;28;20056;-75
2023/09/30 00:58:08;;;;;;;8.25;2.63;;;;;;;;;;5040836;28;20068;-74
2023/09/30 01:00:42;;;;;;;7.43;2.97;;;;;;;;;;5040939;28;20400;-74
2023/09/30 01:03:13;;;;;;;7.57;2.50;;;;;;;;;;5041166;28;20053;-74
2023/09/30 01:05:43;;;;;;;5.93;2.35;;;;;;;;;;5040893;28;20928;-75
2023/09/30 01:08:15;;;;;;;10.10;3.25;;;;;;;;;;5039586;28;20424;-74
2023/09/30 01:10:45;;;;;;;6.93;2.78;;;;;;;;;;5040612;28;20059;-76
2023/09/30 01:13:15;;;;;;;8.20;2.55;;;;;;;;;;5041512;28;20436;-74
2023/09/30 01:15:47;;;;;;;9.07;2.47;;;;;;;;;;5040849;28;20056;-75
2023/09/30 01:18:17;;;;;;;9.43;2.47;;;;;;;;;;5042564;28;20504;-74
2023/09/30 01:20:48;;;;;;;5.00;2.45;;;;;;;;;;5041754;28;20060;-74
2023/09/30 01:23:19;;;;;;;7.07;2.53;;;;;;;;;;5041386;28;20061;-75
2023/09/30 01:25:49;;;;;;;12.30;2.42;;;;;;;;;;5042421;28;20048;-75
2023/09/30 01:28:20;;;;;;;8.30;2.75;;;;;;;;;;5042026;28;20045;-74
2023/09/30 01:30:51;;;;;;;9.55;2.45;;;;;;;;;;5041743;28;20057;-75
2023/09/30 01:33:23;;;;;;;8.50;2.92;;;;;;;;;;5041960;28;20419;-74
2023/09/30 01:35:55;;;;;;;6.50;3.15;;;;;;;;;;5042444;28;20049;-74
2023/09/30 01:38:25;;;;;;;6.97;3.17;;;;;;;;;;5040185;28;20060;-74
2023/09/30 01:40:56;;;;;;;8.07;2.97;;;;;;;;;;5042025;28;20055;-74
2023/09/30 01:43:30;;;;;;;9.57;3.15;;;;;;;;;;5040793;28;20048;-75
2023/09/30 01:46:01;;;;;;;5.95;3.00;;;;;;;;;;5042039;28;20036;-74
2023/09/30 01:48:31;;;;;;;6.57;3.45;;;;;;;;;;5041234;28;20590;-76
2023/09/30 01:51:01;;;;;;;9.25;3.80;;;;;;;;;;5040599;28;20052;-75
2023/09/30 01:53:33;;;;;;;7.82;4.10;;;;;;;;;;5041841;28;20053;-75
2023/09/30 01:56:03;;;;;;;7.32;3.60;;;;;;;;;;5042239;28;20053;-74
2023/09/30 01:58:33;;;;;;;7.72;4.10;;;;;;;;;;5040732;28;20060;-75
2023/09/30 02:01:04;;;;;;;8.32;4.55;;;;;;;;;;5042522;28;20052;-74
2023/09/30 02:03:35;;;;;;;9.25;4.05;;;;;;;;;;5041512;28;20061;-77
2023/09/30 02:06:08;;;;;;;11.13;4.07;;;;;;;;;;5040035;28;20053;-74
2023/09/30 02:08:39;;;;;;;6.82;4.22;;;;;;;;;;5040779;28;20064;-74
2023/09/30 02:11:09;;;;;;;8.27;4.03;;;;;;;;;;5041759;28;20060;-74
2023/09/30 02:13:43;;;;;;;7.38;4.38;;;;;;;;;;5042635;28;20069;-74
2023/09/30 02:16:15;;;;;;;6.90;3.92;;;;;;;;;;5045652;28;20056;-75
2023/09/30 02:18:45;;;;;;;9.15;3.78;;;;;;;;;;5045619;28;20061;-74
2023/09/30 02:21:16;;;;;;;6.55;3.90;;;;;;;;;;5043902;28;20059;-74
2023/09/30 02:23:48;;;;;;;5.68;3.53;;;;;;;;;;5045751;28;20053;-74
2023/09/30 02:26:18;;;;;;;7.60;4.05;;;;;;;;;;5044986;28;20773;-74
2023/09/30 02:28:49;;;;;;;10.35;4.20;;;;;;;;;;5046253;28;20045;-76
2023/09/30 02:31:20;;;;;;;5.75;3.88;;;;;;;;;;5046573;28;20045;-75
2023/09/30 02:33:51;;;;;;;6.32;3.72;;;;;;;;;;5045679;28;20044;-74
2023/09/30 02:36:23;;;;;;;11.98;3.95;;;;;;;;;;5043827;28;20048;-75
2023/09/30 02:38:53;;;;;;;9.52;3.95;;;;;;;;;;5045192;28;20053;-74
2023/09/30 02:41:23;;;;;;;10.18;4.18;;;;;;;;;;5045196;28;20045;-75
2023/09/30 02:43:54;;;;;;;10.45;3.60;;;;;;;;;;5045204;28;20056;-74
2023/09/30 02:46:27;;;;;;;8.43;4.43;;;;;;;;;;5045274;28;20076;-73
2023/09/30 02:48:58;;;;;;;18.48;4.55;;;;;;;;;;5045309;28;20049;-73
2023/09/30 02:51:29;;;;;;;7.20;3.55;;;;;;;;;;5045329;28;20056;-73
2023/09/30 02:54:00;;;;;;;19.40;4.75;;;;;;;;;;5043601;28;20053;-74
2023/09/30 02:56:31;;;;;;;12.10;4.53;;;;;;;;;;5044979;28;20053;-73
2023/09/30 02:59:02;;;;;;;8.23;4.43;;;;;;;;;;5045091;28;20055;-73
2023/09/30 03:01:34;;;;;;;13.65;5.10;;;;;;;;;;5045371;28;20045;-76
2023/09/30 03:04:06;;;;;;;12.45;4.20;;;;;;;;;;5045922;28;20675;-73
2023/09/30 03:06:38;;;;;;;10.98;3.90;;;;;;;;;;5044757;28;20060;-74
2023/09/30 03:09:09;;;;;;;7.18;4.03;;;;;;;;;;5044878;28;20894;-74
2023/09/30 03:11:42;;;;;;;9.25;4.90;;;;;;;;;;5045179;28;20152;-74
2023/09/30 03:14:13;;;;;;;14.55;4.72;;;;;;;;;;5044625;28;20045;-74
2023/09/30 03:16:44;;;;;;;13.85;4.40;;;;;;;;;;5044735;28;20049;-74
2023/09/30 03:19:16;;;;;;;8.38;4.40;;;;;;;;;;5045000;28;20519;-74
2023/09/30 03:21:47;;;;;;;7.47;4.55;;;;;;;;;;5045037;28;20051;-75
2023/09/30 03:24:17;;;;;;;7.28;3.65;;;;;;;;;;5043843;28;20531;-74
2023/09/30 03:26:47;;;;;;;10.88;4.20;;;;;;;;;;5044894;28;20452;-75
2023/09/30 03:29:18;;;;;;;11.70;4.22;;;;;;;;;;5044668;28;20170;-75
2023/09/30 03:31:49;;;;;;;11.02;5.35;;;;;;;;;;5044218;28;20073;-74
2023/09/30 03:34:20;;;;;;;9.57;4.80;;;;;;;;;;5045210;28;20052;-75
2023/09/30 03:36:54;;;;;;;9.20;4.55;;;;;;;;;;5044949;28;20060;-75
2023/09/30 03:39:27;;;;;;;12.18;5.13;;;;;;;;;;5044449;28;20428;-76
2023/09/30 03:41:59;;;;;;;10.02;4.30;;;;;;;;;;5043842;28;20053;-74
2023/09/30 03:44:29;;;;;;;12.77;4.68;;;;;;;;;;5044312;28;20059;-75
2023/09/30 03:47:00;;;;;;;15.45;4.68;;;;;;;;;;5044388;28;20057;-75
2023/09/30 03:49:31;;;;;;;10.10;4.18;;;;;;;;;;5043782;28;20056;-74
2023/09/30 03:52:01;;;;;;;11.75;4.70;;;;;;;;;;5044246;28;20090;-75
2023/09/30 03:54:32;;;;;;;8.82;4.60;;;;;;;;;;5044303;28;20064;-75
2023/09/30 03:57:03;;;;;;;17.15;5.07;;;;;;;;;;5044978;28;20094;-75
2023/09/30 03:59:33;;;;;;;11.27;4.28;;;;;;;;;;5043340;28;20057;-75
2023/09/30 04:02:03;;;;;;;7.25;4.05;;;;;;;;;;5042635;28;20431;-75
2023/09/30 04:04:34;;;;;;;11.50;3.83;;;;;;;;;;5043638;28;20060;-74
2023/09/30 04:07:05;;;;;;;11.98;4.80;;;;;;;;;;5043907;28;20096;-74
2023/09/30 04:09:36;;;;;;;9.27;3.53;;;;;;;;;;5043756;28;20428;-74
2023/09/30 04:12:06;;;;;;;9.45;3.83;;;;;;;;;;5043640;28;20052;-75
2023/09/30 04:14:37;;;;;;;14.30;5.75;;;;;;;;;;5042947;28;20057;-74
2023/09/30 04:17:09;;;;;;;19.27;5.07;;;;;;;;;;5043035;28;20053;-75
2023/09/30 04:19:40;;;;;;;16.85;6.10;;;;;;;;;;5043558;28;20057;-75
2023/09/30 04:22:12;;;;;;;14.43;6.40;;;;;;;;;;5043011;28;20045;-75
2023/09/30 04:24:42;;;;;;;9.13;5.28;;;;;;;;;;5044475;28;20052;-74
2023/09/30 04:27:12;;;;;;;11.40;4.70;;;;;;;;;;5044084;28;20045;-74
2023/09/30 04:29:44;;;;;;;8.88;3.67;;;;;;;;;;5043299;28;20053;-75
2023/09/30 04:32:15;;;;;;;12.43;5.18;;;;;;;;;;5043923;28;20052;-74
2023/09/30 04:34:46;;;;;;;14.23;5.15;;;;;;;;;;5043890;28;20049;-74
2023/09/30 04:37:16;;;;;;;21.20;6.90;;;;;;;;;;5042808;28;20435;-75
2023/09/30 04:39:48;;;;;;;13.20;6.68;;;;;;;;;;5042556;28;20141;-74
2023/09/30 04:42:19;;;;;;;19.92;10.77;;;;;;;;;;5043467;28;20111;-75
2023/09/30 04:44:49;;;;;;;20.60;10.45;;;;;;;;;;5043252;28;20056;-74
2023/09/30 04:47:19;;;;;;;24.70;11.50;;;;;;;;;;5043292;28;20408;-75
2023/09/30 04:49:51;;;;;;;27.33;13.27;;;;;;;;;;5042188;28;20638;-74
2023/09/30 04:52:24;;;;;;;22.55;13.82;;;;;;;;;;5043282;28;20049;-75
2023/09/30 04:54:56;;;;;;;33.42;16.67;;;;;;;;;;5043239;28;20045;-74
2023/09/30 04:57:28;;;;;;;32.92;15.50;;;;;;;;;;5042677;28;20416;-75
2023/09/30 04:59:58;;;;;;;31.35;19.58;;;;;;;;;;5042609;28;20057;-74
2023/09/30 05:02:29;;;;;;;34.53;18.40;;;;;;;;;;5043301;28;20060;-74
2023/09/30 05:05:00;;;;;;;35.17;18.45;;;;;;;;;;5042380;28;20076;-76
2023/09/30 05:07:31;;;;;;;39.85;18.23;;;;;;;;;;5042130;28;20052;-76
2023/09/30 05:10:04;;;;;;;31.23;18.08;;;;;;;;;;5042107;28;20059;-75
2023/09/30 05:12:35;;;;;;;31.02;17.55;;;;;;;;;;5042645;28;20536;-76
2023/09/30 05:15:06;;;;;;;35.67;17.13;;;;;;;;;;5042644;28;20048;-75
2023/09/30 05:17:36;;;;;;;26.48;14.70;;;;;;;;;;5041857;28;20052;-75
2023/09/30 05:20:07;;;;;;;37.00;17.75;;;;;;;;;;5042845;28;20425;-75
2023/09/30 05:22:39;;;;;;;34.97;16.65;;;;;;;;;;5042191;28;20075;-75
2023/09/30 05:25:10;;;;;;;29.48;15.07;;;;;;;;;;5042890;28;20049;-76
2023/09/30 05:27:40;;;;;;;28.73;15.40;;;;;;;;;;5042302;28;20056;-76
2023/09/30 05:30:10;;;;;;;32.08;14.90;;;;;;;;;;5041712;28;20432;-75
2023/09/30 05:32:42;;;;;;;35.65;17.48;;;;;;;;;;5042500;28;20500;-75
2023/09/30 05:35:16;;;;;;;24.27;14.93;;;;;;;;;;5042232;28;20514;-76
2023/09/30 05:37:47;;;;;;;37.65;18.58;;;;;;;;;;5042143;28;20431;-75
2023/09/30 05:40:21;;;;;;;27.60;13.93;;;;;;;;;;5042006;28;20037;-75
2023/09/30 05:43:00;;;;;;;27.85;12.98;;;;;;;;;;5042157;28;20036;-75
2023/09/30 05:45:36;;;;;;;36.50;15.30;;;;;;;;;;5041830;28;20550;-76
2023/09/30 05:48:07;;;;;;;29.20;15.63;;;;;;;;;;5040923;28;21226;-75
2023/09/30 05:50:38;;;;;;;30.00;15.57;;;;;;;;;;5042682;28;20049;-75
2023/09/30 05:53:10;;;;;;;36.40;17.88;;;;;;;;;;5041707;28;20598;-75
2023/09/30 05:55:42;;;;;;;29.98;15.23;;;;;;;;;;5042188;28;20049;-75
2023/09/30 05:58:15;;;;;;;29.15;12.05;;;;;;;;;;5041144;28;20100;-75
2023/09/30 06:00:45;;;;;;;26.38;9.60;;;;;;;;;;5042221;28;20064;-75
2023/09/30 06:03:17;;;;;;;26.23;10.40;;;;;;;;;;5042211;28;20049;-75
2023/09/30 06:05:48;;;;;;;16.90;8.45;;;;;;;;;;5041984;28;20500;-75
2023/09/30 06:08:18;;;;;;;14.15;7.32;;;;;;;;;;5042232;28;20573;-75
2023/09/30 06:10:50;;;;;;;11.27;7.20;;;;;;;;;;5041701;28;20041;-75
2023/09/30 06:13:21;;;;;;;14.60;6.60;;;;;;;;;;5041376;28;20526;-75
2023/09/30 06:15:51;;;;;;;15.57;6.68;;;;;;;;;;5042297;28;20049;-74
2023/09/30 06:18:22;;;;;;;17.70;6.90;;;;;;;;;;5041564;28;20049;-76
2023/09/30 06:20:53;;;;;;;15.80;7.22;;;;;;;;;;5041326;28;20053;-75
2023/09/30 06:23:23;;;;;;;13.60;7.43;;;;;;;;;;5042021;28;20400;-74
2023/09/30 06:25:53;;;;;;;20.13;8.05;;;;;;;;;;5041802;28;20520;-74
2023/09/30 06:28:26;;;;;;;12.23;7.03;;;;;;;;;;5041718;28;20060;-75
2023/09/30 06:30:56;;;;;;;14.85;8.35;;;;;;;;;;5041697;28;20531;-75
2023/09/30 06:33:29;;;;;;;14.93;8.32;;;;;;;;;;5041781;28;20057;-74
2023/09/30 06:36:02;;;;;;;17.80;7.95;;;;;;;;;;5039907;28;20057;-75
2023/09/30 06:38:32;;;;;;;15.13;7.82;;;;;;;;;;5041230;28;20172;-75
2023/09/30 06:41:03;;;;;;;12.73;7.00;;;;;;;;;;5041119;28;20057;-74
2023/09/30 06:43:35;;;;;;;14.60;7.18;;;;;;;;;;5041567;28;20049;-75
2023/09/30 06:46:09;;;;;;;15.23;7.00;;;;;;;;;;5041473;28;20052;-74
2023/09/30 06:48:40;;;;;;;15.52;8.18;;;;;;;;;;5041323;28;20389;-75
2023/09/30 06:51:17;;;;;;;13.60;8.27;;;;;;;;;;5041289;28;20424;-75
2023/09/30 06:53:47;;;;;;;17.73;7.40;;;;;;;;;;5041684;28;20056;-75
2023/09/30 06:56:18;;;;;;;14.23;9.15;;;;;;;;;;5041256;28;20075;-75
2023/09/30 06:58:49;;;;;;;18.52;7.95;;;;;;;;;;5039530;28;20079;-75
2023/09/30 07:01:20;;;;;;;17.40;7.97;;;;;;;;;;5044386;28;20060;-76
2023/09/30 07:03:50;;;;;;;13.88;7.95;;;;;;;;;;5044271;28;20056;-75
2023/09/30 07:06:27;;;;;;;13.57;7.80;;;;;;;;;;5043154;28;20455;-75
2023/09/30 07:08:57;;;;;;;17.88;8.18;;;;;;;;;;5044748;28;20053;-75
2023/09/30 07:11:30;;;;;;;18.55;9.77;;;;;;;;;;5044703;28;20563;-75
2023/09/30 07:14:02;;;;;;;21.23;8.40;;;;;;;;;;5044697;28;20053;-75
2023/09/30 07:16:33;;;;;;;19.55;8.25;;;;;;;;;;5044648;28;20057;-75
2023/09/30 07:19:03;;;;;;;14.35;7.88;;;;;;;;;;5044400;28;20049;-75
2023/09/30 07:21:34;;;;;;;13.77;7.35;;;;;;;;;;5044160;28;20045;-76
2023/09/30 07:24:05;;;;;;;14.32;7.32;;;;;;;;;;5044605;28;20052;-75
2023/09/30 07:26:35;;;;;;;15.60;7.18;;;;;;;;;;5044743;28;20053;-75
2023/09/30 07:29:06;;;;;;;16.35;7.55;;;;;;;;;;5045240;28;20060;-76
2023/09/30 07:31:37;;;;;;;19.25;7.03;;;;;;;;;;5044136;28;20057;-75
2023/09/30 07:34:08;;;;;;;19.15;8.30;;;;;;;;;;5044896;28;20412;-75
2023/09/30 07:36:38;;;;;;;10.30;6.63;;;;;;;;;;5042131;28;20056;-75
2023/09/30 07:39:09;;;;;;;14.80;7.20;;;;;;;;;;5044012;28;20057;-75
2023/09/30 07:41:39;;;;;;;16.35;7.38;;;;;;;;;;5044004;28;20049;-75
2023/09/30 07:44:10;;;;;;;14.32;6.78;;;;;;;;;;5043965;28;20057;-75
2023/09/30 07:46:40;;;;;;;13.88;7.03;;;;;;;;;;5044560;28;20041;-75
2023/09/30 07:49:14;;;;;;;20.95;8.07;;;;;;;;;;5044300;28;20064;-74
2023/09/30 07:51:48;;;;;;;18.05;7.68;;;;;;;;;;5043542;28;20428;-72
2023/09/30 07:54:18;;;;;;;13.38;6.70;;;;;;;;;;5043580;28;20508;-73
2023/09/30 07:57:00;;;;;;;16.25;6.93;;;;;;;;;;5044167;28;20048;-75
2023/09/30 07:59:30;;;;;;;21.83;7.65;;;;;;;;;;5043775;28;20049;-75
2023/09/30 08:02:04;;;;;;;19.88;7.15;;;;;;;;;;5043632;28;20519;-75
2023/09/30 08:04:34;;;;;;;17.42;7.35;;;;;;;;;;5044347;28;20049;-75
2023/09/30 08:07:04;;;;;;;13.98;6.93;;;;;;;;;;5043220;28;20049;-75
2023/09/30 08:09:37;;;;;;;20.35;7.32;;;;;;;;;;5044192;28;20132;-74
2023/09/30 08:12:07;;;;;;;18.40;6.88;;;;;;;;;;5043323;28;20053;-75
2023/09/30 08:14:38;;;;;;;15.98;7.18;;;;;;;;;;5044023;28;20056;-75
2023/09/30 08:17:08;;;;;;;15.05;6.40;;;;;;;;;;5043558;28;20045;-75
2023/09/30 08:19:39;;;;;;;15.52;6.63;;;;;;;;;;5042787;28;20041;-75
2023/09/30 08:22:10;;;;;;;16.40;6.97;;;;;;;;;;5043234;28;20500;-74
2023/09/30 08:24:41;;;;;;;20.13;7.13;;;;;;;;;;5043508;28;20428;-75
2023/09/30 08:27:12;;;;;;;17.10;6.43;;;;;;;;;;5043825;28;20911;-75
2023/09/30 08:29:42;;;;;;;15.65;6.20;;;;;;;;;;5043961;28;20522;-74
2023/09/30 08:32:13;;;;;;;13.50;6.15;;;;;;;;;;5043850;28;20353;-75
2023/09/30 08:34:44;;;;;;;12.25;5.85;;;;;;;;;;5042495;28;20063;-75
2023/09/30 08:37:14;;;;;;;14.43;5.63;;;;;;;;;;5043074;28;20419;-75
2023/09/30 08:39:44;;;;;;;12.65;6.00;;;;;;;;;;5043071;28;20049;-75
2023/09/30 08:42:15;;;;;;;10.57;6.15;;;;;;;;;;5042142;28;20057;-75
2023/09/30 08:44:48;;;;;;;12.77;5.93;;;;;;;;;;5043238;28;20412;-75
2023/09/30 08:47:20;;;;;;;11.02;5.50;;;;;;;;;;5042171;28;20059;-75
2023/09/30 08:49:56;;;;;;;12.65;5.88;;;;;;;;;;5041534;28;20056;-75
2023/09/30 08:52:27;;;;;;;15.68;6.93;;;;;;;;;;5042654;28;20060;-75
2023/09/30 08:54:57;;;;;;;10.30;5.70;;;;;;;;;;5042697;28;20518;-75
2023/09/30 08:57:29;;;;;;;16.33;5.80;;;;;;;;;;5042752;28;20049;-75
2023/09/30 09:00:00;;;;;;;15.05;5.13;;;;;;;;;;5043050;28;20056;-75
2023/09/30 09:02:30;;;;;;;9.65;4.72;;;;;;;;;;5042632;28;20056;-75
2023/09/30 09:05:02;;;;;;;9.43;5.22;;;;;;;;;;5042940;28;20049;-75
2023/09/30 09:07:35;;;;;;;10.68;5.05;;;;;;;;;;5042956;28;20045;-75
2023/09/30 09:10:12;;;;;;;12.77;5.07;;;;;;;;;;5041140;28;20060;-76
2023/09/30 09:12:54;;;;;;;12.52;5.50;;;;;;;;;;5042526;28;20064;-75
2023/09/30 09:15:29;;;;;;;11.55;5.18;;;;;;;;;;5043169;28;20049;-73
2023/09/30 09:18:00;;;;;;;12.40;5.10;;;;;;;;;;5042250;28;20053;-75
2023/09/30 09:20:30;;;;;;;8.10;4.72;;;;;;;;;;5041989;28;20060;-75
2023/09/30 09:23:00;;;;;;;12.30;5.00;;;;;;;;;;5041841;28;20061;-76
2023/09/30 09:25:39;;;;;;;10.00;5.13;;;;;;;;;;5041801;28;20503;-75
2023/09/30 09:28:11;;;;;;;9.02;5.18;;;;;;;;;;5042139;28;20504;-75
2023/09/30 09:30:43;;;;;;;16.05;5.28;;;;;;;;;;5041722;28;20531;-79
2023/09/30 09:33:13;;;;;;;9.23;5.22;;;;;;;;;;5042680;28;20506;-75
2023/09/30 09:35:48;;;;;;;15.75;5.15;;;;;;;;;;5041856;28;20056;-76
2023/09/30 09:38:19;;;;;;;16.25;5.13;;;;;;;;;;5042512;28;20511;-75
2023/09/30 09:40:49;;;;;;;13.05;5.43;;;;;;;;;;5042812;28;20045;-76
2023/09/30 09:43:19;;;;;;;10.90;4.82;;;;;;;;;;5042288;28;20068;-75
2023/09/30 09:45:49;;;;;;;8.73;5.03;;;;;;;;;;5040984;28;20063;-74
2023/09/30 09:48:21;;;;;;;8.07;4.88;;;;;;;;;;5039711;28;20060;-74
2023/09/30 09:50:52;;;;;;;10.68;4.97;;;;;;;;;;5042667;28;20049;-74
2023/09/30 09:53:24;;;;;;;14.27;5.28;;;;;;;;;;5041806;28;20056;-74
2023/09/30 09:55:56;;;;;;;15.15;5.00;;;;;;;;;;5041933;28;20060;-74
2023/09/30 09:58:31;;;;;;;10.60;4.47;;;;;;;;;;5040954;28;20053;-74
2023/09/30 10:01:03;;;;;;;13.65;5.35;;;;;;;;;;5039863;28;20607;-75
2023/09/30 10:03:34;;;;;;;11.30;4.53;;;;;;;;;;5040020;28;20410;-74
2023/09/30 10:06:05;;;;;;;14.30;4.18;;;;;;;;;;5040983;28;20045;-74
2023/09/30 10:08:47;;;;;;;7.95;4.60;;;;;;;;;;5041180;28;20568;-74
2023/09/30 10:11:22;;;;;;;10.10;4.80;;;;;;;;;;5041401;28;20071;-74
2023/09/30 10:14:00;;;;;;;10.95;4.72;;;;;;;;;;5042144;28;20049;-75
2023/09/30 10:16:36;;;;;;;9.82;4.60;;;;;;;;;;5041089;28;20045;-74
2023/09/30 10:19:11;;;;;;;12.43;4.55;;;;;;;;;;5041610;28;20060;-74
2023/09/30 10:22:17;;;;;;;10.90;5.22;;;;;;;;;;5041360;28;20052;-74
2023/09/30 10:24:49;;;;;;;16.80;5.53;;;;;;;;;;5041069;28;20527;-75
2023/09/30 10:27:22;;;;;;;11.45;5.00;;;;;;;;;;5041277;28;20060;-74
2023/09/30 10:30:00;;;;;;;11.48;5.63;;;;;;;;;;5042237;28;20053;-73
2023/09/30 10:32:53;;;;;;;13.13;5.75;;;;;;;;;;5041357;28;20076;-72
2023/09/30 10:35:32;;;;;;;12.52;5.40;;;;;;;;;;5043053;28;20527;-75
2023/09/30 10:38:26;;;;;;;14.73;5.55;;;;;;;;;;5043995;28;20714;-75
2023/09/30 10:41:02;;;;;;;15.73;5.35;;;;;;;;;;5044013;28;20053;-75
2023/09/30 10:43:39;;;;;;;7.93;4.57;;;;;;;;;;5043846;28;20061;-74
2023/09/30 10:46:28;;;;;;;9.13;4.45;;;;;;;;;;5045133;28;20049;-75
2023/09/30 10:49:17;;;;;;;9.50;5.05;;;;;;;;;;5044173;28;20057;-75
2023/09/30 10:51:48;;;;;;;13.07;5.75;;;;;;;;;;5044990;28;20053;-74
2023/09/30 10:54:28;;;;;;;20.65;5.97;;;;;;;;;;5045231;28;20064;-75
2023/09/30 10:56:59;;;;;;;17.05;7.40;;;;;;;;;;5045739;28;20400;-75
2023/09/30 10:59:30;;;;;;;18.50;7.70;;;;;;;;;;5045213;28;20056;-75
2023/09/30 11:02:01;;;;;;;23.30;6.45;;;;;;;;;;5045527;28;20156;-81
2023/09/30 11:04:46;;;;;;;16.92;6.85;;;;;;;;;;5043623;28;20045;-74
2023/09/30 11:07:26;;;;;;;14.70;6.32;;;;;;;;;;5045249;28;20056;-74
2023/09/30 11:09:56;;;;;;;14.07;6.15;;;;;;;;;;5044706;28;20053;-74
2023/09/30 11:12:27;;;;;;;20.00;6.38;;;;;;;;;;5044972;28;20629;-74
2023/09/30 11:15:03;;;;;;;21.35;6.18;;;;;;;;;;5044545;28;20061;-75
2023/09/30 11:17:34;;;;;;;20.42;6.28;;;;;;;;;;5045212;28;20045;-75
2023/09/30 11:20:06;;;;;;;24.30;6.18;;;;;;;;;;5043956;28;20079;-75
2023/09/30 11:22:36;;;;;;;14.93;5.50;;;;;;;;;;5044273;28;20076;-76
2023/09/30 11:25:17;;;;;;;14.43;5.32;;;;;;;;;;5044647;28;20399;-74
2023/09/30 11:27:47;;;;;;;14.10;5.40;;;;;;;;;;5044752;28;20064;-75
2023/09/30 11:30:17;;;;;;;12.85;5.40;;;;;;;;;;5044476;28;20056;-75
2023/09/30 11:32:48;;;;;;;14.43;5.78;;;;;;;;;;5044357;28;20419;-74
2023/09/30 11:35:23;;;;;;;13.30;6.00;;;;;;;;;;5044140;28;20045;-74
2023/09/30 11:37:53;;;;;;;15.60;5.80;;;;;;;;;;5044731;28;20049;-79
2023/09/30 11:40:24;;;;;;;12.95;5.80;;;;;;;;;;5044201;28;20049;-74
2023/09/30 11:43:11;;;;;;;11.65;5.05;;;;;;;;;;5043807;28;20136;-75
2023/09/30 11:45:42;;;;;;;16.17;6.00;;;;;;;;;;5043903;28;20077;-78
2023/09/30 11:48:22;;;;;;;15.55;4.75;;;;;;;;;;5044073;28;20059;-76
2023/09/30 11:50:55;;;;;;;12.80;4.88;;;;;;;;;;5044388;28;20063;-75
2023/09/30 11:53:25;;;;;;;14.63;5.07;;;;;;;;;;5044426;28;20064;-75
2023/09/30 11:55:56;;;;;;;12.85;4.35;;;;;;;;;;5044449;28;20530;-79
2023/09/30 11:58:27;;;;;;;9.52;3.95;;;;;;;;;;5043104;28;20416;-74
2023/09/30 12:01:02;;;;;;;13.35;3.92;;;;;;;;;;5043783;28;20041;-80
2023/09/30 12:03:39;;;;;;;10.43;3.83;;;;;;;;;;5043904;28;20053;-74
2023/09/30 12:06:13;;;;;;;9.10;3.72;;;;;;;;;;5042175;28;20559;-77
2023/09/30 12:08:45;;;;;;;7.88;3.22;;;;;;;;;;5044019;28;20056;-77
2023/09/30 12:11:15;;;;;;;14.57;3.83;;;;;;;;;;5043042;28;20045;-74
2023/09/30 12:13:48;;;;;;;8.35;3.20;;;;;;;;;;5041792;28;20053;-75
2023/09/30 12:16:19;;;;;;;9.52;3.70;;;;;;;;;;5043682;28;20530;-74
2023/09/30 12:18:50;;;;;;;10.18;3.53;;;;;;;;;;5042817;28;20041;-75
2023/09/30 12:21:21;;;;;;;9.63;3.97;;;;;;;;;;5043913;28;20053;-74
2023/09/30 12:23:51;;;;;;;11.00;4.13;;;;;;;;;;5042548;28;20040;-73
2023/09/30 12:26:22;;;;;;;19.30;5.25;;;;;;;;;;5043888;28;20060;-74
2023/09/30 12:28:53;;;;;;;15.85;4.95;;;;;;;;;;5043959;28;20625;-74
2023/09/30 12:31:24;;;;;;;12.43;4.78;;;;;;;;;;5042768;28;20049;-74
2023/09/30 12:33:55;;;;;;;11.75;4.65;;;;;;;;;;5041788;28;20055;-74
2023/09/30 12:36:25;;;;;;;8.57;3.83;;;;;;;;;;5043608;28;21230;-75
2023/09/30 12:38:58;;;;;;;9.25;4.10;;;;;;;;;;5043811;28;20048;-75
2023/09/30 12:41:32;;;;;;;13.50;3.90;;;;;;;;;;5043151;28;20053;-74
2023/09/30 12:44:03;;;;;;;7.57;3.35;;;;;;;;;;5043760;28;20057;-76
2023/09/30 12:46:36;;;;;;;9.95;3.40;;;;;;;;;;5042690;28;20061;-74
2023/09/30 12:49:08;;;;;;;11.07;3.40;;;;;;;;;;5043083;28;20064;-82
2023/09/30 12:51:38;;;;;;;9.60;3.38;;;;;;;;;;5042992;28;20052;-75
2023/09/30 12:54:09;;;;;;;8.38;2.95;;;;;;;;;;5043502;28;20049;-74
2023/09/30 12:56:40;;;;;;;6.03;2.83;;;;;;;;;;5043581;28;20075;-75
2023/09/30 12:59:11;;;;;;;3.90;2.50;;;;;;;;;;5043163;28;20487;-80
2023/09/30 13:01:43;;;;;;;8.63;3.00;;;;;;;;;;5042076;28;20443;-73
2023/09/30 13:04:13;;;;;;;5.93;2.83;;;;;;;;;;5042995;28;20056;-76
2023/09/30 13:06:44;;;;;;;7.70;3.00;;;;;;;;;;5041564;28;20057;-73
2023/09/30 13:09:15;;;;;;;6.22;2.75;;;;;;;;;;5043277;28;20049;-74
2023/09/30 13:11:47;;;;;;;7.80;2.45;;;;;;;;;;5043034;28;20508;-75
2023/09/30 13:14:17;;;;;;;8.73;2.33;;;;;;;;;;5042879;28;20052;-73
2023/09/30 13:16:48;;;;;;;5.72;2.17;;;;;;;;;;5040186;28;21013;-75
2023/09/30 13:19:21;;;;;;;7.82;2.05;;;;;;;;;;5042284;28;20056;-74
2023/09/30 13:21:52;;;;;;;7.13;2.22;;;;;;;;;;5042328;28;20056;-75
2023/09/30 13:24:23;;;;;;;7.72;2.60;;;;;;;;;;5042644;28;20420;-74
2023/09/30 13:26:54;;;;;;;3.92;1.92;;;;;;;;;;5042974;28;20072;-74
2023/09/30 13:29:24;;;;;;;6.32;1.70;;;;;;;;;;5042295;28;20052;-75
2023/09/30 13:31:55;;;;;;;4.35;1.73;;;;;;;;;;5025017;28;20057;-77
2023/09/30 13:34:25;;;;;;;8.30;2.30;;;;;;;;;;5042419;28;20045;-75
2023/09/30 13:36:57;;;;;;;14.13;2.80;;;;;;;;;;5042786;28;20055;-74
2023/09/30 13:39:34;;;;;;;6.63;2.33;;;;;;;;;;5042900;28;20140;-74
2023/09/30 13:42:04;;;;;;;7.03;1.92;;;;;;;;;;5040936;28;20052;-74
2023/09/30 13:44:34;;;;;;;7.55;2.00;;;;;;;;;;5041839;28;20053;-74
2023/09/30 13:47:04;;;;;;;5.15;1.80;;;;;;;;;;5041669;28;20423;-74
2023/09/30 13:49:34;;;;;;;5.97;1.80;;;;;;;;;;5042539;28;20041;-76
2023/09/30 13:52:05;;;;;;;6.22;1.80;;;;;;;;;;5041737;28;20052;-74
2023/09/30 13:54:36;;;;;;;6.68;2.10;;;;;;;;;;5041677;28;20084;-75
2023/09/30 13:57:07;;;;;;;6.30;1.63;;;;;;;;;;5041999;28;20053;-74
2023/09/30 13:59:37;;;;;;;6.63;1.80;;;;;;;;;;5042140;28;20053;-75
2023/09/30 14:02:07;;;;;;;9.75;1.80;;;;;;;;;;5042682;28;20052;-73
2023/09/30 14:04:38;;;;;;;7.00;2.13;;;;;;;;;;5042366;28;20488;-75
2023/09/30 14:07:08;;;;;;;4.47;1.52;;;;;;;;;;5041889;28;20051;-74
2023/09/30 14:09:38;;;;;;;3.20;1.42;;;;;;;;;;5041398;28;20061;-78
2023/09/30 14:12:08;;;;;;;8.85;2.05;;;;;;;;;;5042085;28;20588;-74
2023/09/30 14:14:39;;;;;;;4.82;1.52;;;;;;;;;;5042508;28;20909;-74
2023/09/30 14:17:10;;;;;;;13.23;2.25;;;;;;;;;;5041015;28;20057;-75
2023/09/30 14:19:41;;;;;;;7.55;1.50;;;;;;;;;;5037848;28;20049;-73
2023/09/30 14:22:11;;;;;;;7.22;1.60;;;;;;;;;;5041796;28;20061;-73
2023/09/30 14:24:42;;;;;;;10.68;1.98;;;;;;;;;;5040450;28;20057;-74
2023/09/30 14:27:15;;;;;;;6.00;1.75;;;;;;;;;;5041237;28;20076;-74
2023/09/30 14:29:46;;;;;;;9.75;1.73;;;;;;;;;;5041615;28;20820;-75
2023/09/30 14:32:16;;;;;;;9.45;1.80;;;;;;;;;;5041862;28;20492;-76
2023/09/30 14:34:48;;;;;;;8.73;1.90;;;;;;;;;;5042149;28;20064;-76
2023/09/30 14:37:19;;;;;;;8.80;1.70;;;;;;;;;;5041584;28;20048;-77
2023/09/30 14:39:50;;;;;;;4.53;1.67;;;;;;;;;;5041885;28;20052;-75
